createdAt,value
2019-04-28T00:02:50.841Z,6.07
2019-04-28T00:06:04.520Z,6.01
2019-04-28T00:09:18.359Z,5.93
2019-04-28T00:12:31.943Z,5.80
2019-04-28T00:15:45.773Z,5.87
2019-04-28T00:19:00.919Z,5.72
2019-04-28T00:22:26.931Z,5.74
2019-04-28T00:25:44.889Z,5.80
2019-04-28T00:28:58.359Z,5.72
2019-04-28T00:32:11.963Z,5.73
2019-04-28T00:35:25.829Z,5.64
2019-04-28T00:38:39.311Z,5.67
2019-04-28T00:41:54.477Z,5.65
2019-04-28T00:45:08.498Z,5.63
2019-04-28T00:48:21.987Z,5.60
2019-04-28T00:51:35.479Z,5.61
2019-04-28T00:54:49.475Z,5.61
2019-04-28T00:58:03.163Z,5.59
2019-04-28T01:01:21.355Z,5.49
2019-04-28T01:04:34.925Z,5.48
2019-04-28T01:07:48.747Z,5.45
2019-04-28T01:11:02.319Z,5.47
2019-04-28T01:14:16.088Z,5.47
2019-04-28T01:17:49.603Z,5.37
2019-04-28T01:21:03.559Z,5.42
2019-04-28T01:24:17.288Z,5.38
2019-04-28T01:27:50.829Z,5.32
2019-04-28T01:31:14.492Z,5.22
2019-04-28T01:34:29.992Z,5.26
2019-04-28T01:37:43.497Z,5.22
2019-04-28T01:40:56.990Z,5.22
2019-04-28T01:44:10.587Z,5.26
2019-04-28T01:47:24.312Z,5.16
2019-04-28T01:50:39.893Z,5.13
2019-04-28T01:53:53.577Z,5.16
2019-04-28T01:57:07.156Z,5.23
2019-04-28T02:00:25.375Z,5.19
2019-04-28T02:03:36.461Z,5.19
2019-04-28T02:06:50.164Z,5.09
2019-04-28T02:10:04.449Z,5.01
2019-04-28T02:13:19.882Z,5.04
2019-04-28T02:16:33.596Z,4.94
2019-04-28T02:19:47.365Z,4.97
2019-04-28T02:23:09.888Z,4.97
2019-04-28T02:26:24.004Z,5.00
2019-04-28T02:29:37.730Z,4.97
2019-04-28T02:32:51.941Z,4.93
2019-04-28T02:36:08.688Z,4.82
2019-04-28T02:39:21.333Z,4.84
2019-04-28T02:42:34.947Z,4.87
2019-04-28T02:45:53.485Z,4.78
2019-04-28T02:49:10.236Z,4.78
2019-04-28T02:52:43.609Z,4.78
2019-04-28T02:55:57.099Z,4.74
2019-04-28T02:59:11.072Z,4.76
2019-04-28T03:02:25.272Z,4.79
2019-04-28T03:05:41.243Z,4.71
2019-04-28T03:08:54.375Z,4.67
2019-04-28T03:12:08.060Z,4.78
2019-04-28T03:15:21.554Z,4.74
2019-04-28T03:18:35.947Z,4.76
2019-04-28T03:21:51.070Z,4.76
2019-04-28T03:25:07.063Z,4.72
2019-04-28T03:28:26.998Z,4.78
2019-04-28T03:32:18.261Z,4.81
2019-04-28T03:35:13.587Z,4.77
2019-04-28T03:38:27.257Z,4.78
2019-04-28T03:41:40.943Z,4.72
2019-04-28T03:44:56.723Z,4.72
2019-04-28T03:48:11.442Z,4.71
2019-04-28T03:51:25.034Z,4.83
2019-04-28T03:54:41.059Z,4.79
2019-04-28T03:57:54.018Z,4.77
2019-04-28T04:01:10.435Z,4.82
2019-04-28T04:04:23.495Z,4.83
2019-04-28T04:07:37.235Z,4.75
2019-04-28T04:11:15.115Z,4.77
2019-04-28T04:14:50.901Z,4.76
2019-04-28T04:18:11.082Z,4.88
2019-04-28T04:21:24.699Z,4.92
2019-04-28T04:24:40.319Z,4.80
2019-04-28T04:27:53.578Z,4.89
2019-04-28T04:31:07.308Z,4.80
2019-04-28T04:34:20.806Z,4.88
2019-04-28T04:37:34.397Z,4.99
2019-04-28T04:40:48.095Z,5.08
2019-04-28T04:44:01.698Z,5.10
2019-04-28T04:47:15.454Z,5.06
2019-04-28T04:50:31.460Z,5.03
2019-04-28T04:53:44.362Z,5.11
2019-04-28T04:56:59.923Z,5.13
2019-04-28T05:00:20.981Z,5.16
2019-04-28T05:03:36.499Z,5.20
2019-04-28T05:06:50.004Z,5.22
2019-04-28T05:10:04.501Z,5.32
2019-04-28T05:16:33.183Z,5.39
2019-04-28T05:19:46.677Z,5.40
2019-04-28T05:23:12.600Z,5.48
2019-04-28T05:26:26.097Z,5.58
2019-04-28T05:29:39.934Z,5.61
2019-04-28T05:32:56.248Z,5.67
2019-04-28T05:36:11.687Z,5.76
2019-04-28T05:39:25.286Z,5.88
2019-04-28T05:42:41.977Z,6.08
2019-04-28T05:45:55.475Z,6.25
2019-04-28T05:49:15.465Z,6.41
2019-04-28T05:52:35.128Z,6.50
2019-04-28T05:55:56.408Z,6.49
2019-04-28T05:59:14.259Z,6.49
2019-04-28T06:02:31.858Z,6.69
2019-04-28T06:05:45.635Z,6.92
2019-04-28T06:09:24.250Z,7.03
2019-04-28T06:12:37.757Z,7.20
2019-04-28T06:15:51.364Z,7.19
2019-04-28T06:19:04.955Z,7.30
2019-04-28T06:22:18.563Z,7.37
2019-04-28T06:25:32.065Z,7.13
2019-04-28T06:28:45.776Z,7.12
2019-04-28T06:31:59.800Z,7.29
2019-04-28T06:35:13.393Z,7.50
2019-04-28T06:38:26.896Z,7.59
2019-04-28T06:41:40.651Z,7.73
2019-04-28T06:44:54.243Z,7.75
2019-04-28T06:48:07.863Z,7.80
2019-04-28T06:51:21.405Z,7.66
2019-04-28T06:54:35.006Z,7.61
2019-04-28T06:57:48.777Z,7.55
2019-04-28T07:01:02.497Z,7.57
2019-04-28T07:04:16.348Z,7.70
2019-04-28T07:07:30.092Z,8.01
2019-04-28T07:10:44.047Z,8.22
2019-04-28T07:13:58.458Z,8.25
2019-04-28T07:17:12.633Z,8.27
2019-04-28T07:20:37.476Z,8.05
2019-04-28T07:23:51.881Z,7.93
2019-04-28T07:27:07.221Z,7.92
2019-04-28T07:30:21.626Z,8.15
2019-04-28T07:33:36.335Z,8.22
2019-04-28T07:36:50.500Z,8.48
2019-04-28T07:40:04.683Z,8.71
2019-04-28T07:43:18.420Z,8.64
2019-04-28T07:46:32.055Z,8.68
2019-04-28T07:49:45.965Z,8.69
2019-04-28T07:53:09.179Z,8.75
2019-04-28T07:56:22.681Z,8.95
2019-04-28T07:59:36.183Z,8.91
2019-04-28T08:02:49.675Z,8.93
2019-04-28T08:06:03.368Z,8.74
2019-04-28T08:09:17.487Z,8.76
2019-04-28T08:12:30.988Z,9.06
2019-04-28T08:15:45.134Z,9.06
2019-04-28T08:18:58.743Z,9.00
2019-04-28T08:22:12.351Z,8.82
2019-04-28T08:25:25.838Z,9.12
2019-04-28T08:28:39.449Z,9.20
2019-04-28T08:32:07.092Z,9.38
2019-04-28T08:35:20.728Z,9.46
2019-04-28T08:38:34.225Z,9.81
2019-04-28T08:45:17.695Z,10.02
2019-04-28T08:48:31.287Z,10.24
2019-04-28T08:51:45.254Z,10.57
2019-04-28T08:54:58.999Z,10.71
2019-04-28T08:58:12.736Z,10.87
2019-04-28T09:01:26.656Z,10.92
2019-04-28T09:04:40.451Z,11.01
2019-04-28T09:07:54.119Z,10.87
2019-04-28T09:11:07.928Z,10.74
2019-04-28T09:14:21.960Z,10.79
2019-04-28T09:17:35.751Z,11.18
2019-04-28T09:20:49.795Z,11.52
2019-04-28T09:24:03.903Z,11.61
2019-04-28T09:27:17.950Z,11.36
2019-04-28T09:30:35.442Z,11.25
2019-04-28T09:33:49.191Z,11.09
2019-04-28T09:37:02.948Z,10.44
2019-04-28T09:40:16.947Z,10.13
2019-04-28T09:43:49.557Z,9.89
2019-04-28T09:47:03.542Z,10.01
2019-04-28T09:50:17.449Z,10.21
2019-04-28T09:53:31.713Z,10.43
2019-04-28T09:56:56.039Z,10.43
2019-04-28T10:00:01.620Z,10.66
2019-04-28T10:03:15.296Z,11.35
2019-04-28T10:06:29.514Z,11.85
2019-04-28T10:09:43.301Z,12.65
2019-04-28T10:12:57.290Z,12.81
2019-04-28T10:16:11.531Z,12.60
2019-04-28T10:19:25.893Z,12.78
2019-04-28T10:22:40.245Z,12.99
2019-04-28T10:25:54.115Z,13.13
2019-04-28T10:29:07.808Z,13.20
2019-04-28T10:32:21.536Z,13.50
2019-04-28T10:35:35.458Z,13.60
2019-04-28T10:38:51.081Z,13.20
2019-04-28T10:42:04.836Z,13.82
2019-04-28T10:45:21.738Z,13.65
2019-04-28T10:48:36.113Z,13.40
2019-04-28T10:51:59.130Z,13.05
2019-04-28T10:55:06.585Z,13.04
2019-04-28T10:58:21.515Z,12.34
2019-04-28T11:01:35.228Z,12.36
2019-04-28T11:05:12.122Z,12.02
2019-04-28T11:08:49.200Z,12.24
2019-04-28T11:12:04.880Z,12.10
2019-04-28T11:15:32.956Z,11.72
2019-04-28T11:18:46.672Z,11.67
2019-04-28T11:25:34.794Z,11.66
2019-04-28T11:28:48.865Z,11.74
2019-04-28T11:32:03.578Z,11.90
2019-04-28T11:35:27.167Z,11.85
2019-04-28T11:38:45.827Z,11.85
2019-04-28T11:42:00.295Z,11.74
2019-04-28T11:45:14.674Z,11.83
2019-04-28T11:48:28.709Z,12.02
2019-04-28T11:51:43.164Z,12.46
2019-04-28T11:54:58.181Z,12.62
2019-04-28T11:58:11.980Z,12.72
2019-04-28T12:01:25.488Z,12.51
2019-04-28T12:04:39.443Z,12.38
2019-04-28T12:07:53.617Z,12.54
2019-04-28T12:11:28.420Z,12.86
2019-04-28T12:16:59.482Z,14.19
2019-04-28T12:20:21.855Z,14.80
2019-04-28T12:23:35.568Z,14.82
2019-04-28T12:26:51.738Z,14.55
2019-04-28T12:30:05.777Z,14.02
2019-04-28T12:33:19.360Z,13.50
2019-04-28T12:36:32.996Z,13.28
2019-04-28T12:39:46.873Z,12.98
2019-04-28T12:43:00.378Z,13.10
2019-04-28T12:46:14.043Z,13.16
2019-04-28T12:49:36.876Z,12.78
2019-04-28T12:52:50.499Z,12.56
2019-04-28T12:56:04.277Z,12.38
2019-04-28T12:59:23.237Z,12.26
2019-04-28T13:03:16.398Z,12.10
2019-04-28T13:06:30.137Z,12.03
2019-04-28T13:09:44.058Z,11.74
2019-04-28T13:12:57.678Z,11.69
2019-04-28T13:16:11.938Z,11.43
2019-04-28T13:19:25.918Z,11.29
2019-04-28T13:22:39.596Z,11.42
2019-04-28T13:25:53.702Z,11.44
2019-04-28T13:29:07.279Z,11.37
2019-04-28T13:32:21.115Z,11.33
2019-04-28T13:35:35.739Z,11.02
2019-04-28T13:38:49.251Z,10.85
2019-04-28T13:42:03.502Z,10.72
2019-04-28T13:45:19.909Z,10.58
2019-04-28T13:48:33.748Z,10.54
2019-04-28T13:51:47.454Z,10.69
2019-04-28T13:55:24.530Z,10.86
2019-04-28T13:58:40.626Z,10.94
2019-04-28T14:02:01.943Z,10.99
2019-04-28T14:05:30.323Z,11.23
2019-04-28T14:08:44.209Z,11.59
2019-04-28T14:11:57.966Z,12.18
2019-04-28T14:15:11.640Z,13.15
2019-04-28T14:18:25.243Z,13.76
2019-04-28T14:21:38.939Z,13.50
2019-04-28T14:24:52.566Z,12.90
2019-04-28T14:28:06.289Z,13.41
2019-04-28T14:31:20.068Z,13.55
2019-04-28T14:34:33.624Z,13.56
2019-04-28T14:37:47.383Z,13.46
2019-04-28T14:41:01.140Z,13.44
2019-04-28T14:44:17.579Z,13.45
2019-04-28T14:47:30.238Z,13.24
2019-04-28T14:50:44.275Z,13.15
2019-04-28T14:53:58.027Z,13.24
2019-04-28T14:57:11.857Z,13.20
2019-04-28T15:00:32.068Z,13.30
2019-04-28T15:03:48.413Z,13.28
2019-04-28T15:07:07.836Z,13.23
2019-04-28T15:10:33.943Z,13.03
2019-04-28T15:13:47.698Z,13.37
2019-04-28T15:17:01.364Z,14.35
2019-04-28T15:20:15.369Z,14.99
2019-04-28T15:23:28.857Z,15.07
2019-04-28T15:26:42.711Z,14.88
2019-04-28T15:29:56.190Z,14.67
2019-04-28T15:33:09.856Z,14.46
2019-04-28T15:36:23.350Z,13.94
2019-04-28T15:39:36.840Z,13.61
2019-04-28T15:42:50.599Z,13.23
2019-04-28T15:46:04.304Z,12.81
2019-04-28T15:49:17.821Z,12.77
2019-04-28T15:52:31.665Z,13.04
2019-04-28T15:55:55.370Z,13.28
2019-04-28T15:59:09.881Z,13.51
2019-04-28T16:02:24.010Z,13.67
2019-04-28T16:05:37.673Z,13.63
2019-04-28T16:08:51.517Z,13.43
2019-04-28T16:12:05.400Z,13.87
2019-04-28T16:15:19.399Z,14.04
2019-04-28T16:18:33.061Z,14.57
2019-04-28T16:21:46.924Z,15.10
2019-04-28T16:25:00.996Z,15.61
2019-04-28T16:28:15.245Z,15.89
2019-04-28T16:31:29.045Z,15.58
2019-04-28T16:34:43.014Z,15.73
2019-04-28T16:37:57.222Z,15.80
2019-04-28T16:41:11.346Z,16.02
2019-04-28T16:44:25.808Z,16.96
2019-04-28T16:47:39.589Z,18.17
2019-04-28T16:50:53.323Z,18.55
2019-04-28T16:54:07.180Z,18.83
2019-04-28T16:57:37.796Z,20.05
2019-04-28T17:01:29.491Z,21.02
2019-04-28T17:04:43.367Z,21.99
2019-04-28T17:07:57.828Z,22.88
2019-04-28T17:11:12.061Z,22.92
2019-04-28T17:14:26.042Z,23.39
2019-04-28T17:17:40.435Z,21.94
2019-04-28T17:20:55.175Z,19.89
2019-04-28T17:24:09.202Z,18.11
2019-04-28T17:27:23.731Z,16.76
2019-04-28T17:30:37.891Z,16.43
2019-04-28T17:33:52.006Z,16.93
2019-04-28T17:37:06.596Z,16.27
2019-04-28T17:40:22.321Z,15.44
2019-04-28T17:43:37.032Z,14.49
2019-04-28T17:46:51.109Z,13.57
2019-04-28T17:50:06.208Z,12.75
2019-04-28T17:53:20.310Z,12.08
2019-04-28T17:56:33.922Z,11.59
2019-04-28T17:59:49.419Z,11.23
2019-04-28T18:03:14.691Z,10.93
2019-04-28T18:06:28.983Z,10.63
2019-04-28T18:09:42.574Z,10.31
2019-04-28T18:13:00.798Z,10.09
2019-04-28T18:16:29.816Z,9.88
2019-04-28T18:19:43.419Z,9.67
2019-04-28T18:22:57.153Z,9.38
2019-04-28T18:26:10.661Z,9.17
2019-04-28T18:29:24.610Z,9.01
2019-04-28T18:33:03.617Z,8.87
2019-04-28T18:36:24.153Z,8.71
2019-04-28T18:39:56.304Z,8.55
2019-04-28T18:43:19.833Z,8.38
2019-04-28T18:46:33.604Z,8.23
2019-04-28T18:49:47.128Z,8.13
2019-04-28T18:53:00.709Z,8.04
2019-04-28T18:56:14.459Z,7.89
2019-04-28T18:59:27.952Z,7.75
2019-04-28T19:02:44.377Z,7.66
2019-04-28T19:05:57.972Z,7.58
2019-04-28T19:09:27.859Z,7.51
2019-04-28T19:13:01.359Z,7.33
2019-04-28T19:16:33.708Z,7.14
2019-04-28T19:19:47.324Z,7.08
2019-04-28T19:23:00.927Z,7.02
2019-04-28T19:26:14.690Z,6.95
2019-04-28T19:29:28.183Z,6.86
2019-04-28T19:32:41.668Z,6.76
2019-04-28T19:35:55.727Z,6.66
2019-04-28T19:39:09.230Z,6.61
2019-04-28T19:42:22.729Z,6.54
2019-04-28T19:45:38.236Z,6.49
2019-04-28T19:48:52.033Z,6.42
2019-04-28T19:52:05.730Z,6.35
2019-04-28T19:55:23.512Z,6.24
2019-04-28T19:58:41.422Z,6.19
2019-04-28T20:01:55.128Z,6.06
2019-04-28T20:05:09.052Z,5.95
2019-04-28T20:08:22.731Z,5.84
2019-04-28T20:11:36.320Z,5.79
2019-04-28T20:14:49.846Z,5.75
2019-04-28T20:18:03.533Z,5.72
2019-04-28T20:21:17.023Z,5.65
2019-04-28T20:24:30.525Z,5.56
2019-04-28T20:27:44.126Z,5.47
2019-04-28T20:30:57.611Z,5.38
2019-04-28T20:34:11.415Z,5.33
2019-04-28T20:37:34.885Z,5.20
2019-04-28T20:40:57.600Z,5.08
2019-04-28T20:44:11.075Z,4.98
2019-04-28T20:47:24.557Z,4.95
2019-04-28T20:50:38.148Z,4.90
2019-04-28T20:53:51.627Z,4.89
2019-04-28T20:57:05.131Z,4.83
2019-04-28T21:00:19.061Z,4.80
2019-04-28T21:03:33.043Z,4.71
2019-04-28T21:06:46.566Z,4.66
2019-04-28T21:09:59.995Z,4.54
2019-04-28T21:16:30.634Z,4.50
2019-04-28T21:19:44.224Z,4.36
2019-04-28T21:22:57.737Z,4.28
2019-04-28T21:26:11.247Z,4.23
2019-04-28T21:29:24.726Z,4.19
2019-04-28T21:32:38.894Z,4.16
2019-04-28T21:35:52.388Z,4.14
2019-04-28T21:39:07.728Z,4.15
2019-04-28T21:42:23.786Z,4.15
2019-04-28T21:46:01.908Z,4.13
2019-04-28T21:49:29.570Z,4.10
2019-04-28T21:52:43.131Z,4.05
2019-04-28T21:55:56.719Z,3.93
2019-04-28T21:59:10.529Z,3.88
2019-04-28T22:02:24.015Z,3.85
2019-04-28T22:05:37.585Z,3.81
2019-04-28T22:08:51.393Z,3.78
2019-04-28T22:12:04.988Z,3.74
2019-04-28T22:15:18.728Z,3.67
2019-04-28T22:18:32.466Z,3.62
2019-04-28T22:21:46.070Z,3.56
2019-04-28T22:25:09.326Z,3.52
2019-04-28T22:28:22.807Z,3.53
2019-04-28T22:31:36.446Z,3.47
2019-04-28T22:34:49.900Z,3.41
2019-04-28T22:38:03.610Z,3.35
2019-04-28T22:41:17.087Z,3.32
2019-04-28T22:44:31.035Z,3.25
2019-04-28T22:47:44.599Z,3.22
2019-04-28T22:50:58.188Z,3.19
2019-04-28T22:54:24.148Z,3.21
2019-04-28T22:57:47.808Z,3.23
2019-04-28T23:01:07.091Z,3.22
2019-04-28T23:04:33.774Z,3.19
2019-04-28T23:07:47.287Z,3.15
2019-04-28T23:11:00.949Z,3.09
2019-04-28T23:14:14.906Z,3.06
2019-04-28T23:17:28.597Z,3.04
2019-04-28T23:20:44.079Z,3.02
2019-04-28T23:23:57.792Z,3.03
2019-04-28T23:27:11.367Z,3.01
2019-04-28T23:30:35.934Z,2.96
2019-04-28T23:33:49.836Z,2.91
2019-04-28T23:37:03.523Z,2.92
2019-04-28T23:40:17.200Z,2.86
2019-04-28T23:43:30.683Z,2.84
2019-04-28T23:46:57.541Z,2.80
2019-04-28T23:50:13.144Z,2.76
2019-04-28T23:53:44.772Z,2.70
2019-04-28T23:56:58.472Z,2.73
